Alorton, IL

1:57 AM CDT on March 27, 2015 (GMT -0500)
Soulard | | Change Station
CLOSE
Current Station
Personal Weather Station
Location: Saint Louis, MO
Elevation: 535 ft
Nearby Weather Stations

Elev 535 ft 38.61 °N, 90.21 °W | Updated 15 minutes ago

Partly Cloudy
Partly Cloudy
40.8 °F
Feels Like 41 °F
N
2.7
Wind Variable Wind from North

Today
High -- | Low -- °F
--% Chance of Precip.
Yesterday
High -- | Low -- °F
Precip. -- in
6:53 AM 7:19 PM
Waxing Crescent, 50% visible
Pressure 30.06 in
Visibility 10.0 miles
Clouds Few 11000 ft
Windchill 41 °F
Dew Point 28 °F
Humidity 61%
Rainfall 0.00 in
Snow Depth Not available.
UV 0 out of 12
Pollen 6.10 out of 12
Air Quality Not available.
Flu Activity Not available.
METAR KCPS 270653Z AUTO 36009KT 10SM FEW110 05/M02 A3006 RMK AO2 SLP180 T00501017

More Conditions Fewer Conditions

Pressure 30.06 in
Visibility 10.0 miles
Clouds Few 11000 ft
Windchill 41 °F
Dew Point 28 °F
Humidity 61%
Rainfall 0.00 in
Snow Depth Not available.
UV 0 out of 12
Pollen 6.10 out of 12
Air Quality Not available.
Flu Activity Not available.
METAR KCPS 270653Z AUTO 36009KT 10SM FEW110 05/M02 A3006 RMK AO2 SLP180 T00501017

More Conditions Fewer Conditions

10-Day Weather Forecast

Almanac

Astronomy

Mar. 27, 2015 Rise Set
Actual Time
Civil Twilight
Nautical Twilight
Astronomical Twilight
Moon
Length of Visible Light
Length of Day
Tomorrow will be .
, % of the Moon is Illuminated

Today's Extremes

State Highs State Lows

Community

WunderPhotos

Upload Photos

1,808,700 photos uploaded!

WunderBlogs® & News

Nearby

Air Quality

  Air Quality AQ Index Pollutant
Not available.

Snow Depth

Station Depth Elevation

Earthquake Activity

City Distance Mag. Time & Date
Minimum magnitude displayed is 2.5.

Coastal Water Temperatures

Place Temperature

Stations

Nearby Weather Stations

Station Location Temp. Windchill Dew Point Humidity Wind Precip. Elev Updated Type